Antlers, Oklahoma
Current Conditions -  °F | °C
As of 1:55 AM on Wednesday 22 Oct 2014 (Local Time) from KHHW Reporting Station
Haze Haze  
Wind Chill: 63°   Ceiling: 700
Heat Index: 63°   Visibility: 1.7mi
Dew Point: 61°   Wind: 3mph
Humidity: 93%   Direction: 60°ENE
Pressure: 30.07"   Gusts: NA
Location:  34.23°N, 95.62°W
Report Text: KHHW 220655Z AUTO 06003KT 1 3/4SM BR VV007 17/16 A3007 RMK AO2 T01710159
Loading
Personal Weather Stations






























Interactive Weather Map New forecast layout! Learn more

10-Day Weather Forecast

Advertisements
Track Severe Weather on mobile